Time;durP1;ratioP1;P1;durP2;ratioP2;P2;SDS_P1;SDS_P2;PMS_P1;PMS_P2;Temp;Humidity;BMP_temperature;BMP_pressure;BME280_temperature;BME280_humidity;BME280_pressure;Samples;Min_cycle;Max_cycle;Signal;HPM_P1;HPM_P2
2022/07/10 00:00:31;;;;;;;5.53;1.00;;;;;;;;;;5032195;28;20192;-69
2022/07/10 00:02:57;;;;;;;6.88;1.20;;;;;;;;;;5032725;28;20182;-68
2022/07/10 00:05:24;;;;;;;4.78;0.70;;;;;;;;;;5020826;28;20263;-68
2022/07/10 00:07:50;;;;;;;6.53;1.10;;;;;;;;;;5035610;28;20692;-68
2022/07/10 00:10:18;;;;;;;7.40;1.02;;;;;;;;;;5031244;28;20178;-68
2022/07/10 00:12:44;;;;;;;6.63;1.13;;;;;;;;;;5025021;28;20216;-68
2022/07/10 00:15:10;;;;;;;5.90;1.05;;;;;;;;;;5025646;28;20182;-68
2022/07/10 00:17:36;;;;;;;6.82;1.08;;;;;;;;;;5024780;28;20197;-69
2022/07/10 00:20:02;;;;;;;8.32;1.75;;;;;;;;;;5039179;28;20177;-68
2022/07/10 00:22:27;;;;;;;7.55;1.13;;;;;;;;;;5047818;28;20174;-68
2022/07/10 00:24:53;;;;;;;7.65;1.10;;;;;;;;;;5022215;28;20284;-68
2022/07/10 00:27:18;;;;;;;5.50;0.85;;;;;;;;;;5027569;28;20623;-68
2022/07/10 00:29:44;;;;;;;5.00;0.70;;;;;;;;;;5028553;28;20234;-68
2022/07/10 00:32:10;;;;;;;7.50;1.98;;;;;;;;;;5031464;28;20197;-69
2022/07/10 00:34:35;;;;;;;6.70;1.20;;;;;;;;;;5030451;28;20189;-68
2022/07/10 00:37:01;;;;;;;6.43;1.10;;;;;;;;;;5031041;28;20174;-69
2022/07/10 00:39:27;;;;;;;5.22;0.98;;;;;;;;;;5023559;28;20233;-69
2022/07/10 00:41:52;;;;;;;5.03;1.10;;;;;;;;;;5026373;28;20198;-68
2022/07/10 00:44:17;;;;;;;6.60;1.35;;;;;;;;;;5030630;28;20212;-69
2022/07/10 00:46:43;;;;;;;7.95;1.30;;;;;;;;;;5025932;28;20269;-68
2022/07/10 00:49:08;;;;;;;5.05;1.20;;;;;;;;;;5030674;28;20195;-68
2022/07/10 00:51:34;;;;;;;7.03;1.20;;;;;;;;;;5028821;28;20469;-69
2022/07/10 00:54:00;;;;;;;7.22;1.00;;;;;;;;;;5027364;28;20179;-69
2022/07/10 00:56:26;;;;;;;8.48;0.90;;;;;;;;;;5021172;28;20258;-69
2022/07/10 00:58:52;;;;;;;7.40;1.50;;;;;;;;;;5029590;28;20182;-68
2022/07/10 01:01:18;;;;;;;4.72;1.23;;;;;;;;;;5036641;28;20188;-68
2022/07/10 01:03:48;;;;;;;6.43;1.00;;;;;;;;;;5023211;28;20616;-69
2022/07/10 01:06:14;;;;;;;4.18;1.05;;;;;;;;;;5034380;28;20212;-68
2022/07/10 01:08:39;;;;;;;8.85;1.27;;;;;;;;;;5050348;28;20181;-68
2022/07/10 01:11:05;;;;;;;7.57;1.25;;;;;;;;;;5028374;28;20196;-68
2022/07/10 01:13:31;;;;;;;6.05;1.08;;;;;;;;;;5032872;28;20181;-68
2022/07/10 01:15:57;;;;;;;3.72;1.23;;;;;;;;;;5045819;28;20177;-69
2022/07/10 01:18:22;;;;;;;5.00;1.02;;;;;;;;;;5028006;28;20215;-67
2022/07/10 01:20:57;;;;;;;3.38;1.20;;;;;;;;;;5032626;28;20336;-68
2022/07/10 01:23:23;;;;;;;7.20;0.88;;;;;;;;;;5027037;28;20197;-67
2022/07/10 01:25:49;;;;;;;7.57;1.30;;;;;;;;;;5035490;28;20197;-68
2022/07/10 01:28:20;;;;;;;7.15;1.23;;;;;;;;;;5030187;28;20693;-68
2022/07/10 01:30:45;;;;;;;5.80;0.90;;;;;;;;;;5022178;28;20224;-68
2022/07/10 01:33:11;;;;;;;5.40;0.88;;;;;;;;;;5027712;28;20661;-68
2022/07/10 01:35:36;;;;;;;8.20;1.30;;;;;;;;;;5020888;28;20205;-68
2022/07/10 01:38:02;;;;;;;8.57;1.02;;;;;;;;;;5036554;28;20510;-65
2022/07/10 01:40:27;;;;;;;5.93;0.98;;;;;;;;;;5028914;28;20269;-68
2022/07/10 01:42:53;;;;;;;4.68;1.00;;;;;;;;;;5035378;28;20216;-68
2022/07/10 01:45:21;;;;;;;3.88;1.08;;;;;;;;;;5026308;28;20198;-68
2022/07/10 01:47:47;;;;;;;4.38;1.08;;;;;;;;;;5028876;28;20265;-69
2022/07/10 01:50:12;;;;;;;8.82;1.13;;;;;;;;;;5028401;28;20271;-68
2022/07/10 01:52:37;;;;;;;8.18;1.30;;;;;;;;;;5039897;28;20282;-68
2022/07/10 01:55:04;;;;;;;4.68;1.25;;;;;;;;;;5026599;28;20177;-68
2022/07/10 01:57:29;;;;;;;5.65;1.35;;;;;;;;;;5025470;28;20266;-69
2022/07/10 01:59:55;;;;;;;10.57;1.30;;;;;;;;;;5026915;28;20372;-69
2022/07/10 02:02:21;;;;;;;4.53;1.48;;;;;;;;;;5026866;28;20185;-68
2022/07/10 02:04:46;;;;;;;8.38;1.58;;;;;;;;;;5026943;28;20327;-67
2022/07/10 02:07:18;;;;;;;7.88;1.42;;;;;;;;;;5027936;28;20197;-69
2022/07/10 02:09:44;;;;;;;7.70;1.40;;;;;;;;;;5028801;28;20198;-69
2022/07/10 02:12:11;;;;;;;6.70;1.52;;;;;;;;;;5028389;28;20186;-68
2022/07/10 02:14:37;;;;;;;6.65;1.50;;;;;;;;;;5023024;28;20545;-66
2022/07/10 02:17:04;;;;;;;7.43;1.30;;;;;;;;;;5016463;28;20265;-66
2022/07/10 02:19:29;;;;;;;8.00;1.38;;;;;;;;;;5020603;28;20269;-69
2022/07/10 02:21:55;;;;;;;7.45;1.60;;;;;;;;;;5024797;28;20265;-68
2022/07/10 02:24:20;;;;;;;7.18;1.25;;;;;;;;;;5028972;28;20264;-68
2022/07/10 02:26:45;;;;;;;8.60;1.52;;;;;;;;;;5027943;28;20178;-68
2022/07/10 02:29:11;;;;;;;5.60;1.15;;;;;;;;;;5017311;28;20234;-68
2022/07/10 02:31:40;;;;;;;6.72;1.52;;;;;;;;;;5022298;28;20308;-68
2022/07/10 02:34:06;;;;;;;9.05;2.13;;;;;;;;;;5028018;28;20174;-68
2022/07/10 02:36:32;;;;;;;7.15;1.70;;;;;;;;;;5026965;28;20232;-68
2022/07/10 02:38:57;;;;;;;9.40;1.40;;;;;;;;;;5026168;28;20174;-69
2022/07/10 02:41:22;;;;;;;9.57;1.85;;;;;;;;;;5024848;28;20221;-68
2022/07/10 02:43:48;;;;;;;6.63;1.20;;;;;;;;;;5027782;28;20642;-69
2022/07/10 02:46:14;;;;;;;6.72;1.40;;;;;;;;;;5027952;28;20210;-69
2022/07/10 02:48:39;;;;;;;7.93;1.48;;;;;;;;;;5028081;28;20193;-68
2022/07/10 02:51:04;;;;;;;8.07;1.40;;;;;;;;;;5029546;28;20190;-69
2022/07/10 02:53:30;;;;;;;7.78;2.05;;;;;;;;;;5031309;28;20187;-67
2022/07/10 02:55:56;;;;;;;9.85;1.92;;;;;;;;;;5017792;28;20212;-68
2022/07/10 02:58:22;;;;;;;3.90;1.17;;;;;;;;;;5028787;28;20186;-70
2022/07/10 03:00:47;;;;;;;14.07;1.73;;;;;;;;;;5023978;28;20586;-68
2022/07/10 03:03:13;;;;;;;7.28;1.45;;;;;;;;;;5028830;28;20185;-68
2022/07/10 03:05:38;;;;;;;5.45;1.42;;;;;;;;;;5022734;28;20213;-69
2022/07/10 03:08:04;;;;;;;8.75;1.42;;;;;;;;;;5031356;28;20178;-68
2022/07/10 03:10:29;;;;;;;4.53;1.33;;;;;;;;;;5025868;28;20829;-69
2022/07/10 03:12:55;;;;;;;7.95;1.55;;;;;;;;;;5032039;28;20182;-68
2022/07/10 03:15:20;;;;;;;6.53;1.40;;;;;;;;;;5030971;28;20583;-69
2022/07/10 03:17:45;;;;;;;5.20;1.25;;;;;;;;;;5036701;28;20199;-69
2022/07/10 03:20:11;;;;;;;9.43;1.25;;;;;;;;;;5027513;28;20308;-69
2022/07/10 03:22:37;;;;;;;8.30;1.67;;;;;;;;;;5030429;28;20185;-69
2022/07/10 03:25:03;;;;;;;9.50;1.20;;;;;;;;;;5026469;28;20203;-68
2022/07/10 03:27:28;;;;;;;4.97;1.20;;;;;;;;;;5020653;28;20240;-68
2022/07/10 03:29:53;;;;;;;12.88;1.70;;;;;;;;;;5022587;28;20258;-66
2022/07/10 03:32:19;;;;;;;7.80;1.50;;;;;;;;;;5027308;28;20606;-68
2022/07/10 03:34:44;;;;;;;5.82;1.50;;;;;;;;;;5026297;28;20632;-68
2022/07/10 03:37:09;;;;;;;8.40;1.60;;;;;;;;;;5014171;28;20492;-69
2022/07/10 03:39:35;;;;;;;7.90;1.20;;;;;;;;;;5028906;28;20197;-67
2022/07/10 03:42:00;;;;;;;5.40;1.17;;;;;;;;;;5021576;28;20534;-67
2022/07/10 03:44:26;;;;;;;5.90;1.50;;;;;;;;;;5022893;28;20365;-69
2022/07/10 03:46:51;;;;;;;5.07;1.23;;;;;;;;;;5023143;28;20202;-65
2022/07/10 03:49:17;;;;;;;5.25;1.05;;;;;;;;;;5022232;28;20268;-66
2022/07/10 03:51:42;;;;;;;5.65;1.10;;;;;;;;;;5019046;28;20293;-68
2022/07/10 03:54:08;;;;;;;7.72;1.38;;;;;;;;;;5015516;28;20206;-66
2022/07/10 03:59:17;;;;;;;5.90;1.73;;;;;;;;;;5026388;28;20635;-67
2022/07/10 04:01:42;;;;;;;11.45;1.42;;;;;;;;;;5028976;28;20186;-67
2022/07/10 04:04:08;;;;;;;6.35;1.67;;;;;;;;;;5021846;28;21051;-68
2022/07/10 04:06:33;;;;;;;5.15;1.23;;;;;;;;;;5017820;28;20186;-68
2022/07/10 04:08:58;;;;;;;7.80;1.55;;;;;;;;;;5029357;28;20186;-67
2022/07/10 04:11:24;;;;;;;4.75;1.33;;;;;;;;;;5025615;28;20188;-69
2022/07/10 04:13:49;;;;;;;7.15;1.23;;;;;;;;;;5030969;28;20243;-68
2022/07/10 04:16:14;;;;;;;9.07;1.50;;;;;;;;;;5030169;28;20487;-67
2022/07/10 04:18:40;;;;;;;9.02;1.30;;;;;;;;;;5028547;28;20186;-68
2022/07/10 04:21:06;;;;;;;7.40;1.00;;;;;;;;;;5019454;28;20182;-67
2022/07/10 04:23:35;;;;;;;7.13;1.27;;;;;;;;;;5033072;28;20173;-69
2022/07/10 04:26:00;;;;;;;12.32;1.65;;;;;;;;;;5037119;28;20618;-68
2022/07/10 04:28:27;;;;;;;5.63;1.10;;;;;;;;;;5041462;28;20312;-68
2022/07/10 04:30:52;;;;;;;6.05;1.00;;;;;;;;;;5041064;28;20186;-68
2022/07/10 04:33:18;;;;;;;8.57;1.48;;;;;;;;;;5029229;28;20622;-68
2022/07/10 04:35:43;;;;;;;6.28;1.38;;;;;;;;;;5023182;28;20243;-68
2022/07/10 04:38:09;;;;;;;8.27;1.55;;;;;;;;;;5034366;28;20520;-69
2022/07/10 04:40:34;;;;;;;5.78;1.45;;;;;;;;;;5023484;28;20605;-69
2022/07/10 04:42:59;;;;;;;5.20;1.40;;;;;;;;;;5015189;28;20187;-68
2022/07/10 04:45:25;;;;;;;6.78;1.10;;;;;;;;;;5027154;28;20217;-68
2022/07/10 04:47:51;;;;;;;7.90;1.20;;;;;;;;;;5014853;28;20228;-68
2022/07/10 04:50:16;;;;;;;4.95;0.95;;;;;;;;;;5022465;28;20186;-68
2022/07/10 04:52:41;;;;;;;5.78;0.98;;;;;;;;;;5022523;28;20194;-68
2022/07/10 04:55:07;;;;;;;4.25;1.15;;;;;;;;;;5035376;28;20213;-68
2022/07/10 04:57:33;;;;;;;3.13;1.13;;;;;;;;;;5024618;28;20276;-68
2022/07/10 04:59:58;;;;;;;7.40;1.52;;;;;;;;;;5029274;28;20182;-68
2022/07/10 05:02:23;;;;;;;11.82;1.15;;;;;;;;;;5040677;28;20193;-68
2022/07/10 05:04:49;;;;;;;10.15;1.23;;;;;;;;;;5024471;28;20216;-68
2022/07/10 05:07:14;;;;;;;3.85;0.77;;;;;;;;;;5038375;28;20203;-68
2022/07/10 05:09:40;;;;;;;6.55;1.30;;;;;;;;;;5028807;28;20190;-68
2022/07/10 05:12:06;;;;;;;8.20;1.35;;;;;;;;;;5026863;28;20611;-68
2022/07/10 05:14:32;;;;;;;6.18;1.20;;;;;;;;;;5032974;28;20183;-68
2022/07/10 05:16:57;;;;;;;6.07;1.00;;;;;;;;;;5030707;28;20508;-68
2022/07/10 05:19:22;;;;;;;7.55;1.13;;;;;;;;;;5027292;28;20197;-67
2022/07/10 05:21:48;;;;;;;8.95;0.90;;;;;;;;;;5035242;28;20174;-67
2022/07/10 05:24:13;;;;;;;6.07;1.38;;;;;;;;;;5037857;28;20237;-67
2022/07/10 05:26:38;;;;;;;8.65;1.25;;;;;;;;;;5020129;28;20270;-68
2022/07/10 05:29:04;;;;;;;6.03;1.48;;;;;;;;;;5026008;28;20222;-68
2022/07/10 05:31:29;;;;;;;5.55;1.10;;;;;;;;;;5028303;28;20202;-68
2022/07/10 05:33:54;;;;;;;8.15;1.25;;;;;;;;;;5039638;28;20563;-69
2022/07/10 05:36:20;;;;;;;5.63;1.13;;;;;;;;;;5039432;28;20736;-67
2022/07/10 05:38:46;;;;;;;5.78;0.95;;;;;;;;;;5040175;28;20231;-69
2022/07/10 05:41:11;;;;;;;7.22;1.40;;;;;;;;;;5039050;28;20642;-68
2022/07/10 05:43:36;;;;;;;7.15;1.00;;;;;;;;;;5044358;28;20201;-66
2022/07/10 05:46:02;;;;;;;7.35;1.00;;;;;;;;;;5032998;28;20580;-68
2022/07/10 05:48:27;;;;;;;11.32;1.70;;;;;;;;;;5034126;28;20194;-67
2022/07/10 05:50:52;;;;;;;6.90;1.00;;;;;;;;;;5034120;28;20229;-67
2022/07/10 05:53:19;;;;;;;7.50;1.50;;;;;;;;;;5039034;28;20667;-68
2022/07/10 05:55:48;;;;;;;5.82;0.95;;;;;;;;;;5042629;28;20609;-69
2022/07/10 05:58:13;;;;;;;8.10;1.00;;;;;;;;;;5042245;28;20243;-69
2022/07/10 06:00:39;;;;;;;6.07;1.35;;;;;;;;;;5042977;28;20646;-69
2022/07/10 06:03:04;;;;;;;9.63;1.08;;;;;;;;;;5035362;28;20711;-68
2022/07/10 06:05:29;;;;;;;7.43;1.40;;;;;;;;;;5031269;28;20198;-68
2022/07/10 06:07:55;;;;;;;7.85;1.05;;;;;;;;;;5036470;28;20201;-68
2022/07/10 06:10:20;;;;;;;6.18;1.33;;;;;;;;;;5027750;28;20224;-69
2022/07/10 06:12:45;;;;;;;5.85;1.02;;;;;;;;;;5025636;28;20178;-68
2022/07/10 06:15:11;;;;;;;8.80;1.30;;;;;;;;;;5029665;28;20265;-67
2022/07/10 06:17:36;;;;;;;5.57;1.42;;;;;;;;;;5021438;28;20201;-65
2022/07/10 06:20:02;;;;;;;4.28;1.20;;;;;;;;;;5032258;28;20188;-68
2022/07/10 06:22:30;;;;;;;5.95;1.20;;;;;;;;;;4335322;28;10000811;-68
2022/07/10 06:24:57;;;;;;;7.45;1.10;;;;;;;;;;5034553;28;20198;-69
2022/07/10 06:27:22;;;;;;;6.72;1.30;;;;;;;;;;5029303;28;20186;-67
2022/07/10 06:29:48;;;;;;;2.38;0.80;;;;;;;;;;5030510;28;20647;-66
2022/07/10 06:32:13;;;;;;;4.80;1.08;;;;;;;;;;5029663;28;20577;-68
2022/07/10 06:34:39;;;;;;;4.35;1.10;;;;;;;;;;5035774;28;20322;-65
2022/07/10 06:37:05;;;;;;;6.65;0.98;;;;;;;;;;5020058;28;20197;-66
2022/07/10 06:39:35;;;;;;;9.13;1.50;;;;;;;;;;5018052;28;20186;-69
2022/07/10 06:42:07;;;;;;;5.57;1.10;;;;;;;;;;5023306;28;20181;-69
2022/07/10 06:44:33;;;;;;;3.97;1.15;;;;;;;;;;5025128;28;20669;-68
2022/07/10 06:49:43;;;;;;;3.78;1.00;;;;;;;;;;5020613;28;20251;-67
2022/07/10 06:52:09;;;;;;;6.93;1.40;;;;;;;;;;5024747;28;20560;-68
2022/07/10 06:54:34;;;;;;;5.75;1.70;;;;;;;;;;5026096;28;20216;-66
2022/07/10 06:57:00;;;;;;;4.57;1.13;;;;;;;;;;5021565;28;20716;-69
2022/07/10 06:59:25;;;;;;;9.63;1.25;;;;;;;;;;5021429;28;20193;-67
2022/07/10 07:01:51;;;;;;;11.45;1.60;;;;;;;;;;5030841;28;20186;-68
2022/07/10 07:04:16;;;;;;;6.13;1.42;;;;;;;;;;5034228;28;20210;-67
2022/07/10 07:06:41;;;;;;;5.38;1.92;;;;;;;;;;5017506;28;20183;-70
2022/07/10 07:09:07;;;;;;;3.95;1.25;;;;;;;;;;5032744;28;20189;-69
2022/07/10 07:11:32;;;;;;;4.10;1.10;;;;;;;;;;5009898;28;20190;-69
2022/07/10 07:13:57;;;;;;;12.73;1.52;;;;;;;;;;5011791;28;20741;-68
2022/07/10 07:16:37;;;;;;;5.55;1.23;;;;;;;;;;5018578;28;21002;-71
2022/07/10 07:19:04;;;;;;;4.28;0.93;;;;;;;;;;5017301;28;20261;-69
2022/07/10 07:24:14;;;;;;;4.07;1.20;;;;;;;;;;5020037;28;20647;-69
2022/07/10 07:26:39;;;;;;;5.22;1.85;;;;;;;;;;5025562;28;20182;-71
2022/07/10 07:29:05;;;;;;;5.32;1.60;;;;;;;;;;5037779;28;20221;-68
2022/07/10 07:31:30;;;;;;;6.47;1.20;;;;;;;;;;5034556;28;20549;-72
2022/07/10 07:33:56;;;;;;;5.55;1.20;;;;;;;;;;5032259;28;20209;-71
2022/07/10 07:36:22;;;;;;;6.63;1.45;;;;;;;;;;5032048;28;20583;-71
2022/07/10 07:38:47;;;;;;;3.75;1.08;;;;;;;;;;5032575;28;20328;-70
2022/07/10 07:41:12;;;;;;;4.03;1.20;;;;;;;;;;5027208;28;20190;-66
2022/07/10 07:43:38;;;;;;;2.60;1.25;;;;;;;;;;5034884;28;20268;-67
2022/07/10 07:46:03;;;;;;;7.65;1.58;;;;;;;;;;5022245;28;20289;-69
2022/07/10 07:48:29;;;;;;;4.47;1.20;;;;;;;;;;5029796;28;20597;-71
2022/07/10 07:50:54;;;;;;;4.55;1.42;;;;;;;;;;5032464;28;20619;-72
2022/07/10 07:53:19;;;;;;;3.58;1.30;;;;;;;;;;5027034;28;20637;-74
2022/07/10 07:55:45;;;;;;;5.97;1.98;;;;;;;;;;5034921;28;20616;-73
2022/07/10 07:58:10;;;;;;;7.85;1.42;;;;;;;;;;5024226;28;21050;-73
2022/07/10 08:00:35;;;;;;;5.20;1.67;;;;;;;;;;5025019;28;20205;-73
2022/07/10 08:03:01;;;;;;;5.75;1.90;;;;;;;;;;5034769;28;20185;-74
2022/07/10 08:05:27;;;;;;;11.02;2.10;;;;;;;;;;5038017;28;20582;-74
2022/07/10 08:07:54;;;;;;;5.55;2.00;;;;;;;;;;5031161;28;20244;-72
2022/07/10 08:10:22;;;;;;;7.32;2.15;;;;;;;;;;5027981;28;20615;-74
2022/07/10 08:12:47;;;;;;;9.52;1.75;;;;;;;;;;5020202;28;20197;-71
2022/07/10 08:15:15;;;;;;;4.63;1.65;;;;;;;;;;5020448;28;20190;-72
2022/07/10 08:17:40;;;;;;;5.05;1.40;;;;;;;;;;5023251;28;20572;-70
2022/07/10 08:20:12;;;;;;;2.90;1.20;;;;;;;;;;5020339;28;20214;-70
2022/07/10 08:22:38;;;;;;;2.50;1.20;;;;;;;;;;5015709;28;20194;-72
2022/07/10 08:25:04;;;;;;;6.40;1.52;;;;;;;;;;5022960;28;20705;-69
2022/07/10 08:27:29;;;;;;;4.47;1.40;;;;;;;;;;5014471;28;20216;-70
2022/07/10 08:29:55;;;;;;;1.83;0.73;;;;;;;;;;5018997;28;20226;-66
2022/07/10 08:32:20;;;;;;;7.45;1.40;;;;;;;;;;5018721;28;20219;-69
2022/07/10 08:34:45;;;;;;;3.95;1.30;;;;;;;;;;5028030;28;20633;-69
2022/07/10 08:37:11;;;;;;;5.00;1.23;;;;;;;;;;5039206;28;20238;-69
2022/07/10 08:39:37;;;;;;;3.58;1.20;;;;;;;;;;5040693;28;20281;-70
2022/07/10 08:42:06;;;;;;;2.38;1.17;;;;;;;;;;5033616;28;20636;-71
2022/07/10 08:44:31;;;;;;;4.93;1.33;;;;;;;;;;5041322;28;20274;-70
2022/07/10 08:46:57;;;;;;;5.55;1.30;;;;;;;;;;5033083;28;20177;-72
2022/07/10 08:49:30;;;;;;;5.72;1.20;;;;;;;;;;5036341;28;20197;-71
2022/07/10 08:52:02;;;;;;;3.63;1.05;;;;;;;;;;5039615;28;20181;-71
2022/07/10 08:54:29;;;;;;;4.47;1.30;;;;;;;;;;5038091;28;20202;-69
2022/07/10 08:56:57;;;;;;;4.20;1.27;;;;;;;;;;5034089;28;20198;-69
2022/07/10 08:59:23;;;;;;;6.68;1.30;;;;;;;;;;5038266;28;20850;-69
2022/07/10 09:01:52;;;;;;;3.40;1.10;;;;;;;;;;5041550;28;20186;-71
2022/07/10 09:04:19;;;;;;;3.70;1.38;;;;;;;;;;5043018;28;20233;-71
2022/07/10 09:06:44;;;;;;;6.32;1.35;;;;;;;;;;5040926;28;20556;-70
2022/07/10 09:09:11;;;;;;;3.65;1.17;;;;;;;;;;5032444;28;20174;-71
2022/07/10 09:11:40;;;;;;;1.33;0.90;;;;;;;;;;5026469;28;20883;-71
2022/07/10 09:14:11;;;;;;;5.63;1.60;;;;;;;;;;5026951;28;20673;-70
2022/07/10 09:16:39;;;;;;;2.65;0.93;;;;;;;;;;5029054;28;20179;-69
2022/07/10 09:19:16;;;;;;;2.70;1.33;;;;;;;;;;5029890;28;20204;-74
2022/07/10 09:21:43;;;;;;;1.20;0.77;;;;;;;;;;5043866;28;20189;-71
2022/07/10 09:24:08;;;;;;;2.40;1.00;;;;;;;;;;5039710;28;20276;-72
2022/07/10 09:26:38;;;;;;;3.00;1.00;;;;;;;;;;5044508;28;20322;-69
2022/07/10 09:29:11;;;;;;;2.58;0.90;;;;;;;;;;5045424;28;20244;-74
2022/07/10 09:31:53;;;;;;;2.05;0.60;;;;;;;;;;5036426;28;20212;-70
2022/07/10 09:36:04;;;;;;;0.93;0.50;;;;;;;;;;5043653;28;20207;-69
2022/07/10 09:37:39;;;;;;;1.55;0.75;;;;;;;;;;5037352;28;20202;-72
2022/07/10 09:40:05;;;;;;;3.10;0.60;;;;;;;;;;5041959;28;20264;-69
2022/07/10 09:42:31;;;;;;;2.35;0.60;;;;;;;;;;5035003;28;20182;-70
2022/07/10 09:45:24;;;;;;;2.85;0.85;;;;;;;;;;5028955;28;20198;-66
2022/07/10 09:47:52;;;;;;;1.50;0.63;;;;;;;;;;5026985;28;20373;-65
2022/07/10 09:50:30;;;;;;;0.80;0.70;;;;;;;;;;5038616;28;20213;-71
2022/07/10 09:52:57;;;;;;;3.95;0.80;;;;;;;;;;5044032;28;20519;-74
2022/07/10 09:55:32;;;;;;;4.25;0.90;;;;;;;;;;5036875;28;20236;-66
2022/07/10 09:58:00;;;;;;;4.35;0.55;;;;;;;;;;5039658;28;20189;-69
2022/07/10 10:00:31;;;;;;;4.47;0.77;;;;;;;;;;5041885;28;20641;-72
2022/07/10 10:02:59;;;;;;;2.00;0.70;;;;;;;;;;5037372;28;20251;-70
2022/07/10 10:05:43;;;;;;;2.74;0.64;;;;;;;;;;5003580;28;10000832;-67
2022/07/10 10:08:17;;;;;;;4.13;0.68;;;;;;;;;;4688204;28;10000090;-67
2022/07/10 10:10:45;;;;;;;1.08;0.52;;;;;;;;;;5043355;28;20193;-68
2022/07/10 10:13:11;;;;;;;4.60;0.60;;;;;;;;;;5044103;28;20177;-69
2022/07/10 10:15:37;;;;;;;2.20;0.60;;;;;;;;;;5029206;28;20275;-74
2022/07/10 10:18:03;;;;;;;2.13;0.93;;;;;;;;;;5045366;28;20208;-71
2022/07/10 10:20:41;;;;;;;3.10;0.77;;;;;;;;;;5042028;28;20185;-73
2022/07/10 10:23:11;;;;;;;1.00;0.45;;;;;;;;;;5030327;28;20646;-72
2022/07/10 10:25:37;;;;;;;4.60;0.82;;;;;;;;;;5034889;28;20196;-70
2022/07/10 10:28:06;;;;;;;2.75;0.75;;;;;;;;;;5033000;28;20219;-72
2022/07/10 10:30:32;;;;;;;3.60;0.75;;;;;;;;;;5032774;28;20185;-69
2022/07/10 10:32:59;;;;;;;3.72;1.00;;;;;;;;;;5041688;28;20242;-69
2022/07/10 10:35:43;;;;;;;5.60;1.08;;;;;;;;;;5044980;28;20182;-70
2022/07/10 10:38:08;;;;;;;4.15;1.02;;;;;;;;;;5027542;28;20220;-71
2022/07/10 10:40:34;;;;;;;3.63;1.00;;;;;;;;;;5041712;28;20213;-70
2022/07/10 10:43:23;;;;;;;3.45;1.35;;;;;;;;;;5037057;28;20565;-72
2022/07/10 10:45:49;;;;;;;3.72;1.80;;;;;;;;;;5039030;28;20194;-73
2022/07/10 10:48:17;;;;;;;3.08;1.20;;;;;;;;;;5040088;28;20186;-72
2022/07/10 10:50:49;;;;;;;3.72;1.58;;;;;;;;;;5042404;28;20181;-71
2022/07/10 10:53:15;;;;;;;5.72;1.60;;;;;;;;;;5033578;28;20674;-71
2022/07/10 10:56:02;;;;;;;4.18;1.80;;;;;;;;;;5038420;28;20182;-68
2022/07/10 10:58:35;;;;;;;3.58;1.27;;;;;;;;;;5030304;28;20209;-71
2022/07/10 11:01:24;;;;;;;2.85;1.67;;;;;;;;;;5038296;28;20181;-70
2022/07/10 11:04:04;;;;;;;1.80;1.10;;;;;;;;;;5040377;28;20760;-70
2022/07/10 11:06:52;;;;;;;4.85;1.42;;;;;;;;;;5031095;28;20198;-71
2022/07/10 11:09:27;;;;;;;1.25;1.08;;;;;;;;;;5031171;28;20186;-69
2022/07/10 11:12:09;;;;;;;3.33;1.25;;;;;;;;;;5032449;28;20770;-71
2022/07/10 11:14:40;;;;;;;4.50;1.85;;;;;;;;;;5038768;28;20173;-70
2022/07/10 11:17:06;;;;;;;4.80;1.92;;;;;;;;;;5045236;28;20232;-71
2022/07/10 11:19:33;;;;;;;5.25;1.80;;;;;;;;;;5038647;28;20189;-71
2022/07/10 11:22:06;;;;;;;4.07;1.50;;;;;;;;;;5026769;28;20184;-70
2022/07/10 11:24:41;;;;;;;6.30;1.35;;;;;;;;;;5033371;28;20205;-73
2022/07/10 11:27:19;;;;;;;4.05;1.35;;;;;;;;;;5035411;28;20189;-74
2022/07/10 11:29:47;;;;;;;2.30;1.23;;;;;;;;;;5031406;28;20268;-76
2022/07/10 11:32:16;;;;;;;2.92;1.20;;;;;;;;;;5035724;28;20292;-77
2022/07/10 11:34:41;;;;;;;5.63;1.63;;;;;;;;;;5020369;28;20541;-76
2022/07/10 11:37:16;;;;;;;2.83;1.60;;;;;;;;;;5017984;28;20187;-77
2022/07/10 11:39:42;;;;;;;5.63;1.50;;;;;;;;;;5022706;28;20190;-76
2022/07/10 11:42:07;;;;;;;3.20;1.20;;;;;;;;;;5026583;28;20179;-77
2022/07/10 11:44:33;;;;;;;4.18;1.67;;;;;;;;;;5016719;28;20574;-73
2022/07/10 11:46:59;;;;;;;5.25;2.03;;;;;;;;;;5032102;28;22298;-74
2022/07/10 11:49:25;;;;;;;5.57;1.80;;;;;;;;;;5025200;28;20182;-72
2022/07/10 11:51:50;;;;;;;5.13;2.30;;;;;;;;;;5023596;28;20205;-74
2022/07/10 11:54:18;;;;;;;6.50;2.20;;;;;;;;;;5025301;28;20501;-73
2022/07/10 11:56:54;;;;;;;4.07;2.30;;;;;;;;;;5027586;28;20178;-74
2022/07/10 11:59:27;;;;;;;2.85;1.60;;;;;;;;;;5028169;28;20220;-75
2022/07/10 12:01:53;;;;;;;4.75;1.60;;;;;;;;;;5025529;28;20178;-72
2022/07/10 12:04:26;;;;;;;6.32;1.90;;;;;;;;;;5022052;28;20223;-73
2022/07/10 12:06:53;;;;;;;4.22;1.40;;;;;;;;;;5032002;28;20732;-72
2022/07/10 12:09:20;;;;;;;4.43;1.50;;;;;;;;;;5035371;28;20267;-73
2022/07/10 12:12:09;;;;;;;4.03;1.85;;;;;;;;;;5043434;28;20250;-73
2022/07/10 12:14:34;;;;;;;4.75;1.75;;;;;;;;;;5023617;28;20216;-76
2022/07/10 12:17:00;;;;;;;4.60;2.20;;;;;;;;;;5035952;28;20828;-73
2022/07/10 12:19:30;;;;;;;3.92;1.52;;;;;;;;;;5029013;28;20440;-73
2022/07/10 12:21:55;;;;;;;3.13;1.95;;;;;;;;;;5043148;28;20193;-73
2022/07/10 12:24:21;;;;;;;3.63;1.88;;;;;;;;;;5031614;28;20186;-73
2022/07/10 12:26:48;;;;;;;4.50;2.10;;;;;;;;;;5027314;28;20783;-74
2022/07/10 12:29:21;;;;;;;3.50;1.90;;;;;;;;;;5019160;28;20311;-73
2022/07/10 12:31:49;;;;;;;3.35;1.50;;;;;;;;;;5034075;28;20202;-73
2022/07/10 12:34:15;;;;;;;6.30;1.60;;;;;;;;;;5034804;28;20535;-75
2022/07/10 12:36:44;;;;;;;3.85;1.45;;;;;;;;;;5033795;28;20833;-68
2022/07/10 12:39:11;;;;;;;3.25;1.40;;;;;;;;;;5036449;28;20307;-73
2022/07/10 12:42:00;;;;;;;4.97;1.60;;;;;;;;;;5036710;28;20668;-73
2022/07/10 12:44:42;;;;;;;6.88;1.38;;;;;;;;;;5039337;28;20293;-69
2022/07/10 12:47:11;;;;;;;4.88;1.27;;;;;;;;;;5042542;28;20231;-73
2022/07/10 12:49:55;;;;;;;7.70;1.60;;;;;;;;;;5030971;28;20185;-71
2022/07/10 12:52:26;;;;;;;2.95;1.33;;;;;;;;;;5035521;28;20262;-71
2022/07/10 12:55:13;;;;;;;4.22;1.50;;;;;;;;;;5035857;28;20592;-72
2022/07/10 12:57:58;;;;;;;4.47;1.67;;;;;;;;;;5031515;28;20194;-72
2022/07/10 13:00:27;;;;;;;5.25;1.90;;;;;;;;;;5037461;28;20209;-71
2022/07/10 13:03:04;;;;;;;4.55;1.52;;;;;;;;;;5031341;28;20213;-71
2022/07/10 13:05:40;;;;;;;3.25;1.30;;;;;;;;;;5040713;28;20193;-72
2022/07/10 13:08:21;;;;;;;3.75;1.48;;;;;;;;;;5044613;28;20259;-73
2022/07/10 13:10:52;;;;;;;3.33;1.40;;;;;;;;;;5036812;28;20391;-73
2022/07/10 13:13:19;;;;;;;2.45;1.20;;;;;;;;;;5043627;28;20185;-76
2022/07/10 13:15:56;;;;;;;3.88;1.30;;;;;;;;;;5038040;28;20210;-68
2022/07/10 13:18:24;;;;;;;3.15;1.27;;;;;;;;;;5038853;28;20173;-67
2022/07/10 13:20:51;;;;;;;2.55;1.27;;;;;;;;;;5029156;28;20182;-71
2022/07/10 13:23:21;;;;;;;2.50;1.45;;;;;;;;;;5036874;28;20182;-71
2022/07/10 13:25:48;;;;;;;3.97;1.25;;;;;;;;;;5045577;28;20189;-74
2022/07/10 13:28:16;;;;;;;6.80;1.20;;;;;;;;;;5043119;28;20235;-73
2022/07/10 13:30:41;;;;;;;2.67;1.13;;;;;;;;;;5041407;28;20596;-67
2022/07/10 13:33:07;;;;;;;3.25;1.30;;;;;;;;;;5035164;28;20267;-73
2022/07/10 13:35:33;;;;;;;5.85;1.35;;;;;;;;;;5038508;28;20752;-70
2022/07/10 13:38:00;;;;;;;2.28;1.02;;;;;;;;;;5031506;28;20481;-70
2022/07/10 13:40:30;;;;;;;4.30;1.20;;;;;;;;;;5040354;28;20240;-72
2022/07/10 13:42:58;;;;;;;5.45;1.35;;;;;;;;;;5035317;28;20185;-73
2022/07/10 13:45:26;;;;;;;3.22;0.90;;;;;;;;;;5038095;28;20203;-67
2022/07/10 13:47:53;;;;;;;6.57;1.15;;;;;;;;;;5042374;28;20715;-73
2022/07/10 13:50:19;;;;;;;6.05;1.20;;;;;;;;;;5043243;28;20206;-72
2022/07/10 13:52:44;;;;;;;5.47;1.30;;;;;;;;;;5039435;28;20274;-71
2022/07/10 13:55:09;;;;;;;3.83;1.27;;;;;;;;;;5039026;28;20269;-66
2022/07/10 13:57:35;;;;;;;3.58;1.45;;;;;;;;;;5040212;28;20205;-76
2022/07/10 14:00:00;;;;;;;2.42;1.08;;;;;;;;;;5033357;28;20213;-75
2022/07/10 14:02:26;;;;;;;5.13;1.10;;;;;;;;;;5041306;28;20189;-67
2022/07/10 14:04:51;;;;;;;4.35;1.40;;;;;;;;;;5028325;28;20276;-71
2022/07/10 14:07:17;;;;;;;3.17;0.93;;;;;;;;;;5021400;28;20277;-77
2022/07/10 14:09:42;;;;;;;2.47;1.20;;;;;;;;;;5033793;28;20181;-68
2022/07/10 14:12:08;;;;;;;2.53;0.88;;;;;;;;;;5035105;28;20186;-75
2022/07/10 14:14:33;;;;;;;2.47;1.00;;;;;;;;;;5041962;28;20671;-67
2022/07/10 14:16:59;;;;;;;2.58;0.80;;;;;;;;;;5036400;28;20181;-69
2022/07/10 14:19:24;;;;;;;4.65;1.10;;;;;;;;;;5031627;28;20220;-70
2022/07/10 14:21:49;;;;;;;6.68;1.02;;;;;;;;;;5035718;28;20496;-73
2022/07/10 14:24:15;;;;;;;3.42;0.77;;;;;;;;;;5035930;28;20227;-72
2022/07/10 14:26:40;;;;;;;2.70;0.85;;;;;;;;;;5034489;28;20173;-70
2022/07/10 14:29:05;;;;;;;5.07;0.93;;;;;;;;;;5035318;28;20260;-70
2022/07/10 14:31:32;;;;;;;3.40;1.00;;;;;;;;;;5034652;28;20217;-69
2022/07/10 14:33:57;;;;;;;6.55;1.00;;;;;;;;;;5028533;28;20192;-67
2022/07/10 14:36:26;;;;;;;3.38;0.98;;;;;;;;;;5022658;28;20276;-69
2022/07/10 14:38:54;;;;;;;3.10;1.10;;;;;;;;;;5021207;28;20857;-72
2022/07/10 14:41:20;;;;;;;7.07;1.02;;;;;;;;;;5014326;28;20745;-70
2022/07/10 14:43:45;;;;;;;4.47;1.23;;;;;;;;;;5026551;28;20202;-69
2022/07/10 14:46:11;;;;;;;2.80;1.05;;;;;;;;;;5022651;28;20276;-71
2022/07/10 14:48:36;;;;;;;3.00;1.17;;;;;;;;;;5013084;28;20742;-72
2022/07/10 14:51:02;;;;;;;1.90;1.20;;;;;;;;;;5023103;28;20186;-70
2022/07/10 14:53:27;;;;;;;7.78;3.15;;;;;;;;;;5016227;28;20703;-67